Terminal Aerodrome Forecast
Issued by NWS

Home | Current Version | Previous Version | Text Only | Print | Product List | Glossary On
Versions: 1 2 3 4 5 6 7 8 9 10 11 12 13 14 15 16 17 18 19 20 21 22 23 24 25 26 27 28 29 30 31 32
000
FTUS46 KOTX 012320
TAFCOE
TAF
KCOE 012320Z 0200/0224 23012G16KT P6SM FEW060 BKN080 BKN150
     FM020100 21008KT P6SM FEW080 SCT150
     FM020600 23005KT P6SM FEW150
     FM021900 26009KT P6SM FEW080
      AMD LTD TO CLD AND VIS=

USA.gov is the U.S. government's official web portal to all federal, state and local government web resources and services.